Norris Observed Data For Previous 48 Hours

Caption
Day and Hour Reservoir Elevation (behind dam)* Tailwater Elevation (below dam)* Average Hourly Discharge*
8/15/2018 2 AM EDT 1,019.12 821.69 20
8/15/2018 3 AM EDT 1,019.10 822.53 103
8/15/2018 4 AM EDT 1,019.13 823.81 3,201
8/15/2018 5 AM EDT 1,019.14 822.18 20
8/15/2018 6 AM EDT 1,019.14 821.81 20
8/15/2018 7 AM EDT 1,019.13 821.65 20
8/15/2018 8 AM EDT 1,019.13 821.53 20
8/15/2018 9 AM EDT 1,019.12 821.42 20
8/15/2018 10 AM EDT 1,019.13 821.31 20
8/15/2018 11 AM EDT 1,019.14 821.22 20
8/15/2018 12 PM EDT 1,019.13 821.13 20
8/15/2018 1 PM EDT 1,019.12 821.06 20
8/15/2018 2 PM EDT 1,019.11 822.17 106
8/15/2018 3 PM EDT 1,019.13 824.60 3,403
8/15/2018 4 PM EDT 1,019.14 824.86 3,396
8/15/2018 5 PM EDT 1,019.13 824.86 3,402
8/15/2018 6 PM EDT 1,019.13 824.85 3,390
8/15/2018 7 PM EDT 1,019.13 824.90 3,394
8/15/2018 8 PM EDT 1,019.13 824.87 3,393
8/15/2018 9 PM EDT 1,019.09 824.83 3,399
8/15/2018 10 PM EDT 1,019.11 824.86 3,392
8/15/2018 11 PM EDT 1,019.10 824.86 3,397
8/16/2018 12 AM EDT 1,019.08 824.88 3,401
8/16/2018 1 AM EDT 1,019.11 822.28 143
8/16/2018 2 AM EDT 1,019.09 821.85 20
8/16/2018 3 AM EDT 1,019.09 821.67 20
8/16/2018 4 AM EDT 1,019.10 821.55 20
8/16/2018 5 AM EDT 1,019.10 821.44 20
8/16/2018 6 AM EDT 1,019.09 821.33 20
8/16/2018 7 AM EDT 1,019.11 821.23 20
8/16/2018 8 AM EDT 1,019.11 821.14 20
8/16/2018 9 AM EDT 1,019.11 821.06 20
8/16/2018 10 AM EDT 1,019.10 820.88 162
8/16/2018 11 AM EDT 1,019.07 821.99 105
8/16/2018 12 PM EDT 1,019.09 824.49 3,406
8/16/2018 1 PM EDT 1,019.08 824.78 3,398
8/16/2018 2 PM EDT 1,019.08 824.85 3,396
8/16/2018 3 PM EDT 1,019.08 824.88 3,389
8/16/2018 4 PM EDT 1,019.08 824.78 3,403
8/16/2018 5 PM EDT 1,019.07 824.81 3,392
8/16/2018 6 PM EDT 1,019.07 824.82 3,398
8/16/2018 7 PM EDT 1,019.05 824.84 3,395
8/16/2018 8 PM EDT 1,019.03 824.81 3,390
8/16/2018 9 PM EDT 1,019.05 824.78 3,394
8/16/2018 10 PM EDT 1,019.05 824.87 3,391
8/16/2018 11 PM EDT 1,019.06 822.25 148
8/17/2018 12 AM EDT 1,019.06 821.79 20
8/17/2018 1 AM EDT 1,019.03 821.58 20
8/17/2018 2 AM EDT 1,019.03 821.40 20
8/17/2018 3 AM EDT 1,019.01 822.31 106
8/17/2018 4 AM EDT 1,019.07 823.71 3,189
8/17/2018 5 AM EDT 1,019.05 822.11 20
8/17/2018 6 AM EDT 1,019.03 821.73 20
8/17/2018 7 AM EDT 1,019.05 821.53 20
8/17/2018 8 AM EDT 1,019.04 821.35 20
8/17/2018 9 AM EDT 1,019.04 821.17 20
8/17/2018 10 AM EDT 1,019.02 821.01 20
8/17/2018 11 AM EDT 1,019.03 820.87 20
8/17/2018 12 PM EDT 1,019.05 820.76 20

Elevations are in feet above sea level. Discharges are in cubic feet per second and are reported at the end of the hour.